createdAt,value
2018-12-13T00:02:16.848Z,7.20
2018-12-13T00:04:45.894Z,8.18
2018-12-13T00:07:14.138Z,7.85
2018-12-13T00:09:42.323Z,7.75
2018-12-13T00:12:10.489Z,7.22
2018-12-13T00:14:38.795Z,7.72
2018-12-13T00:17:07.069Z,7.62
2018-12-13T00:19:35.251Z,7.05
2018-12-13T00:22:03.516Z,8.30
2018-12-13T00:24:31.897Z,9.15
2018-12-13T00:27:00.333Z,7.62
2018-12-13T00:29:29.456Z,8.48
2018-12-13T00:31:58.522Z,7.95
2018-12-13T00:34:27.389Z,9.40
2018-12-13T00:36:56.719Z,10.55
2018-12-13T00:39:31.589Z,8.03
2018-12-13T00:42:00.207Z,9.65
2018-12-13T00:44:30.719Z,10.20
2018-12-13T00:46:58.931Z,9.20
2018-12-13T00:49:27.317Z,10.00
2018-12-13T00:51:57.371Z,10.08
2018-12-13T00:54:25.549Z,11.40
2018-12-13T00:56:53.854Z,10.45
2018-12-13T00:59:22.118Z,10.15
2018-12-13T01:01:50.390Z,10.55
2018-12-13T01:04:18.717Z,9.45
2018-12-13T01:06:47.009Z,10.58
2018-12-13T01:09:15.354Z,11.18
2018-12-13T01:11:43.678Z,11.70
2018-12-13T01:14:11.938Z,12.00
2018-12-13T01:16:41.216Z,10.63
2018-12-13T01:19:09.572Z,11.33
2018-12-13T01:21:37.820Z,11.38
2018-12-13T01:24:06.400Z,12.75
2018-12-13T01:26:34.638Z,11.93
2018-12-13T01:29:02.846Z,13.98
2018-12-13T01:31:31.192Z,13.35
2018-12-13T01:34:00.210Z,12.63
2018-12-13T01:36:28.695Z,12.68
2018-12-13T01:38:56.946Z,13.70
2018-12-13T01:41:25.220Z,11.70
2018-12-13T01:43:53.428Z,12.33
2018-12-13T01:46:21.847Z,14.75
2018-12-13T01:48:50.033Z,13.30
2018-12-13T01:51:18.254Z,13.45
2018-12-13T01:53:46.502Z,13.45
2018-12-13T01:56:14.757Z,13.85
2018-12-13T01:58:42.975Z,13.48
2018-12-13T02:01:11.383Z,14.53
2018-12-13T02:03:39.711Z,14.75
2018-12-13T02:06:08.485Z,17.35
2018-12-13T02:08:36.749Z,15.08
2018-12-13T02:11:04.966Z,14.53
2018-12-13T02:13:33.281Z,14.60
2018-12-13T02:16:01.712Z,15.58
2018-12-13T02:18:36.535Z,16.65
2018-12-13T02:21:04.881Z,14.85
2018-12-13T02:23:33.263Z,16.57
2018-12-13T02:26:01.470Z,17.00
2018-12-13T02:28:29.716Z,16.10
2018-12-13T02:30:57.861Z,16.82
2018-12-13T02:33:26.563Z,17.57
2018-12-13T02:35:54.867Z,16.37
2018-12-13T02:38:23.130Z,14.85
2018-12-13T02:40:51.337Z,15.20
2018-12-13T02:43:19.547Z,16.15
2018-12-13T02:45:47.819Z,14.45
2018-12-13T02:48:16.114Z,17.62
2018-12-13T02:50:44.288Z,16.05
2018-12-13T02:53:12.476Z,14.25
2018-12-13T02:55:41.778Z,14.58
2018-12-13T02:58:10.022Z,13.93
2018-12-13T03:00:38.268Z,13.15
2018-12-13T03:03:06.716Z,15.10
2018-12-13T03:05:36.058Z,15.35
2018-12-13T03:08:04.700Z,14.20
2018-12-13T03:10:33.064Z,15.53
2018-12-13T03:13:02.145Z,14.93
2018-12-13T03:15:30.431Z,16.55
2018-12-13T03:17:58.681Z,14.58
2018-12-13T03:20:26.898Z,15.98
2018-12-13T03:22:55.172Z,15.93
2018-12-13T03:25:23.665Z,16.15
2018-12-13T03:27:51.899Z,14.55
2018-12-13T03:30:20.234Z,15.35
2018-12-13T03:32:48.472Z,15.80
2018-12-13T03:35:16.877Z,14.68
2018-12-13T03:37:46.010Z,14.60
2018-12-13T03:40:14.247Z,14.93
2018-12-13T03:42:42.566Z,14.25
2018-12-13T03:45:10.844Z,13.58
2018-12-13T03:47:39.198Z,14.87
2018-12-13T03:50:08.709Z,12.88
2018-12-13T03:52:37.513Z,12.70
2018-12-13T03:55:05.886Z,13.98
2018-12-13T03:57:34.384Z,12.60
2018-12-13T04:00:02.779Z,12.60
2018-12-13T04:02:31.778Z,11.20
2018-12-13T04:05:02.120Z,12.00
2018-12-13T04:07:30.654Z,13.18
2018-12-13T04:09:59.157Z,13.15
2018-12-13T04:12:27.396Z,11.65
2018-12-13T04:14:55.843Z,11.88
2018-12-13T04:17:24.848Z,11.53
2018-12-13T04:19:53.131Z,11.85
2018-12-13T04:22:22.647Z,11.90
2018-12-13T04:24:50.897Z,13.15
2018-12-13T04:27:19.177Z,12.30
2018-12-13T04:29:47.340Z,10.90
2018-12-13T04:32:15.522Z,13.03
2018-12-13T04:34:43.718Z,11.73
2018-12-13T04:37:11.953Z,13.35
2018-12-13T04:39:40.121Z,12.60
2018-12-13T04:42:08.350Z,12.60
2018-12-13T04:44:37.919Z,13.22
2018-12-13T04:47:06.373Z,14.18
2018-12-13T04:49:34.577Z,14.13
2018-12-13T04:52:02.898Z,14.40
2018-12-13T04:54:31.033Z,16.97
2018-12-13T04:57:00.464Z,16.40
2018-12-13T04:59:28.680Z,14.90
2018-12-13T05:01:56.967Z,14.40
2018-12-13T05:04:26.305Z,13.60
2018-12-13T05:06:54.762Z,14.28
2018-12-13T05:09:23.074Z,15.53
2018-12-13T05:11:51.230Z,15.28
2018-12-13T05:14:19.456Z,15.43
2018-12-13T05:16:47.638Z,15.53
2018-12-13T05:19:15.748Z,13.78
2018-12-13T05:21:45.229Z,15.32
2018-12-13T05:24:13.472Z,13.78
2018-12-13T05:26:41.741Z,15.20
2018-12-13T05:29:10.083Z,14.35
2018-12-13T05:31:38.250Z,14.87
2018-12-13T05:34:06.464Z,13.40
2018-12-13T05:36:34.667Z,13.88
2018-12-13T05:39:03.096Z,13.95
2018-12-13T05:41:31.226Z,12.73
2018-12-13T05:43:59.460Z,12.82
2018-12-13T05:46:27.910Z,13.72
2018-12-13T05:48:56.161Z,12.18
2018-12-13T05:51:24.674Z,13.90
2018-12-13T05:53:52.872Z,13.70
2018-12-13T05:56:21.180Z,13.90
2018-12-13T05:58:49.398Z,15.85
2018-12-13T06:01:17.610Z,13.18
2018-12-13T06:03:45.774Z,14.78
2018-12-13T06:06:14.152Z,12.50
2018-12-13T06:08:44.693Z,15.80
2018-12-13T06:11:13.888Z,12.80
2018-12-13T06:13:42.157Z,13.70
2018-12-13T06:16:10.410Z,14.93
2018-12-13T06:18:38.588Z,14.10
2018-12-13T06:21:11.851Z,14.05
2018-12-13T06:23:37.121Z,13.10
2018-12-13T06:26:05.314Z,14.10
2018-12-13T06:28:33.523Z,13.68
2018-12-13T06:31:01.733Z,13.75
2018-12-13T06:33:29.911Z,15.83
2018-12-13T06:35:58.049Z,14.90
2018-12-13T06:38:26.931Z,13.90
2018-12-13T06:40:55.213Z,15.98
2018-12-13T06:43:23.392Z,15.25
2018-12-13T06:45:51.543Z,14.95
2018-12-13T06:48:19.806Z,15.58
2018-12-13T06:50:48.013Z,14.28
2018-12-13T06:53:16.310Z,14.73
2018-12-13T06:55:44.580Z,14.23
2018-12-13T06:58:12.772Z,15.78
2018-12-13T07:00:41.022Z,13.72
2018-12-13T07:03:09.310Z,16.37
2018-12-13T07:05:37.511Z,17.25
2018-12-13T07:08:08.002Z,16.62
2018-12-13T07:10:35.991Z,15.70
2018-12-13T07:13:04.266Z,16.00
2018-12-13T07:15:32.746Z,17.55
2018-12-13T07:18:00.963Z,16.37
2018-12-13T07:20:29.153Z,13.30
2018-12-13T07:22:57.330Z,14.35
2018-12-13T07:25:25.638Z,15.30
2018-12-13T07:27:55.140Z,16.17
2018-12-13T07:30:23.472Z,12.58
2018-12-13T07:32:51.919Z,12.18
2018-12-13T07:35:20.144Z,13.83
2018-12-13T07:37:48.792Z,14.28
2018-12-13T07:40:17.058Z,14.23
2018-12-13T07:42:45.236Z,12.25
2018-12-13T07:45:13.575Z,12.23
2018-12-13T07:47:41.821Z,14.18
2018-12-13T07:50:10.185Z,13.80
2018-12-13T07:52:38.469Z,12.93
2018-12-13T07:55:06.732Z,13.43
2018-12-13T07:57:34.995Z,13.25
2018-12-13T08:00:03.414Z,14.13
2018-12-13T08:02:31.764Z,13.70
2018-12-13T08:05:00.134Z,12.85
2018-12-13T08:07:28.320Z,12.07
2018-12-13T08:09:56.520Z,13.43
2018-12-13T08:12:24.893Z,14.10
2018-12-13T08:14:53.125Z,12.73
2018-12-13T08:17:21.456Z,13.22
2018-12-13T08:19:49.752Z,13.93
2018-12-13T08:22:17.993Z,13.62
2018-12-13T08:24:46.261Z,11.65
2018-12-13T08:27:14.456Z,13.55
2018-12-13T08:29:42.722Z,12.82
2018-12-13T08:32:11.037Z,12.80
2018-12-13T08:34:39.259Z,13.25
2018-12-13T08:37:07.735Z,12.28
2018-12-13T08:39:36.034Z,12.15
2018-12-13T08:42:04.445Z,12.18
2018-12-13T08:44:32.758Z,12.58
2018-12-13T08:47:00.921Z,11.30
2018-12-13T08:49:29.152Z,12.03
2018-12-13T08:51:57.433Z,10.48
2018-12-13T08:54:26.615Z,11.08
2018-12-13T08:56:55.069Z,11.05
2018-12-13T08:59:23.519Z,12.03
2018-12-13T09:01:52.818Z,10.65
2018-12-13T09:04:21.174Z,12.60
2018-12-13T09:06:49.369Z,11.60
2018-12-13T09:09:17.672Z,12.63
2018-12-13T09:11:45.869Z,13.65
2018-12-13T09:14:14.362Z,13.78
2018-12-13T09:16:42.847Z,13.15
2018-12-13T09:19:11.104Z,11.55
2018-12-13T09:21:39.404Z,11.65
2018-12-13T09:24:07.547Z,13.58
2018-12-13T09:26:35.709Z,12.67
2018-12-13T09:29:04.058Z,12.40
2018-12-13T09:31:32.295Z,10.80
2018-12-13T09:34:00.548Z,10.63
2018-12-13T09:36:28.862Z,11.55
2018-12-13T09:38:57.086Z,10.65
2018-12-13T09:41:25.591Z,10.88
2018-12-13T09:43:53.772Z,10.00
2018-12-13T09:46:21.966Z,12.53
2018-12-13T09:48:50.808Z,11.28
2018-12-13T09:51:19.062Z,11.83
2018-12-13T09:53:47.300Z,12.70
2018-12-13T09:56:15.554Z,11.80
2018-12-13T09:58:43.726Z,11.20
2018-12-13T10:01:12.782Z,13.00
2018-12-13T10:03:42.120Z,11.50
2018-12-13T10:06:10.414Z,11.70
2018-12-13T10:08:38.710Z,11.33
2018-12-13T10:11:07.626Z,11.20
2018-12-13T10:13:36.900Z,11.33
2018-12-13T10:16:05.117Z,10.60
2018-12-13T10:21:21.028Z,9.48
2018-12-13T10:23:49.390Z,10.93
2018-12-13T10:26:17.715Z,9.95
2018-12-13T10:28:46.018Z,11.50
2018-12-13T10:31:14.186Z,9.75
2018-12-13T10:33:42.492Z,12.33
2018-12-13T10:36:10.912Z,14.58
2018-12-13T10:38:39.264Z,12.40
2018-12-13T10:41:14.310Z,10.25
2018-12-13T10:43:42.500Z,9.10
2018-12-13T10:46:10.826Z,10.13
2018-12-13T10:48:39.026Z,10.40
2018-12-13T10:51:07.218Z,10.60
2018-12-13T10:53:35.986Z,9.78
2018-12-13T10:56:04.268Z,9.83
2018-12-13T10:58:32.494Z,11.20
2018-12-13T11:01:06.130Z,9.73
2018-12-13T11:03:36.108Z,9.93
2018-12-13T11:06:04.775Z,10.10
2018-12-13T11:08:33.022Z,10.85
2018-12-13T11:11:01.302Z,10.63
2018-12-13T11:13:29.577Z,11.07
2018-12-13T11:15:58.193Z,10.43
2018-12-13T11:18:26.661Z,11.97
2018-12-13T11:20:54.903Z,10.65
2018-12-13T11:23:23.148Z,9.98
2018-12-13T11:25:51.363Z,9.78
2018-12-13T11:28:31.013Z,10.10
2018-12-13T11:30:59.295Z,9.50
2018-12-13T11:33:27.766Z,9.18
2018-12-13T11:35:56.003Z,9.45
2018-12-13T11:38:24.354Z,9.68
2018-12-13T11:40:52.717Z,9.28
2018-12-13T11:43:20.874Z,8.73
2018-12-13T11:45:49.174Z,11.25
2018-12-13T11:48:17.430Z,9.60
2018-12-13T11:50:45.797Z,9.10
2018-12-13T11:53:14.090Z,8.73
2018-12-13T11:55:42.638Z,10.05
2018-12-13T11:58:13.599Z,9.53
2018-12-13T12:00:41.793Z,8.75
2018-12-13T12:03:10.106Z,9.55
2018-12-13T12:05:38.541Z,10.00
2018-12-13T12:08:06.919Z,8.65
2018-12-13T12:10:35.116Z,10.05
2018-12-13T12:13:03.343Z,11.45
2018-12-13T12:15:31.474Z,9.73
2018-12-13T12:17:59.656Z,10.75
2018-12-13T12:20:27.848Z,9.93
2018-12-13T12:22:56.099Z,10.75
2018-12-13T12:25:24.415Z,11.93
2018-12-13T12:27:52.795Z,9.85
2018-12-13T12:30:21.205Z,11.10
2018-12-13T12:32:50.015Z,10.70
2018-12-13T12:35:25.293Z,10.50
2018-12-13T12:37:53.552Z,11.70
2018-12-13T12:40:21.865Z,11.38
2018-12-13T12:42:51.201Z,10.98
2018-12-13T12:45:19.566Z,11.15
2018-12-13T12:47:47.972Z,10.80
2018-12-13T12:50:16.189Z,11.75
2018-12-13T12:52:44.433Z,11.57
2018-12-13T12:55:12.676Z,11.40
2018-12-13T12:57:40.883Z,11.83
2018-12-13T13:00:09.989Z,11.15
2018-12-13T13:02:38.413Z,11.65
2018-12-13T13:05:07.017Z,9.40
2018-12-13T13:07:35.243Z,10.80
2018-12-13T13:10:03.907Z,10.63
2018-12-13T13:12:32.198Z,12.15
2018-12-13T13:15:00.635Z,10.38
2018-12-13T13:17:29.975Z,11.63
2018-12-13T13:19:58.223Z,9.33
2018-12-13T13:22:26.483Z,10.90
2018-12-13T13:24:54.840Z,11.33
2018-12-13T13:27:23.155Z,8.78
2018-12-13T13:29:51.418Z,11.12
2018-12-13T13:32:19.592Z,11.40
2018-12-13T13:34:47.865Z,10.58
2018-12-13T13:37:16.052Z,15.13
2018-12-13T13:39:44.279Z,10.38
2018-12-13T13:42:12.554Z,9.60
2018-12-13T13:44:41.048Z,9.98
2018-12-13T13:47:09.444Z,11.10
2018-12-13T13:49:37.870Z,10.60
2018-12-13T13:52:06.114Z,10.28
2018-12-13T13:54:34.385Z,9.98
2018-12-13T13:57:02.718Z,10.03
2018-12-13T13:59:30.975Z,10.28
2018-12-13T14:01:59.195Z,8.83
2018-12-13T14:04:27.444Z,8.90
2018-12-13T14:06:55.713Z,8.63
2018-12-13T14:09:24.128Z,8.53
2018-12-13T14:11:52.387Z,7.92
2018-12-13T14:14:20.716Z,9.95
2018-12-13T14:16:49.596Z,8.75
2018-12-13T14:19:17.933Z,8.95
2018-12-13T14:21:46.106Z,8.73
2018-12-13T14:24:14.321Z,10.35
2018-12-13T14:26:42.425Z,10.58
2018-12-13T14:29:10.616Z,9.30
2018-12-13T14:31:38.824Z,10.08
2018-12-13T14:34:07.049Z,10.60
2018-12-13T14:36:35.291Z,10.10
2018-12-13T14:39:05.703Z,9.65
2018-12-13T14:41:34.101Z,9.93
2018-12-13T14:44:02.715Z,12.07
2018-12-13T14:46:30.957Z,10.70
2018-12-13T14:48:59.465Z,10.68
2018-12-13T14:51:28.034Z,10.55
2018-12-13T14:53:56.337Z,11.83
2018-12-13T14:56:24.641Z,10.45
2018-12-13T14:58:52.858Z,10.85
2018-12-13T15:01:21.059Z,11.28
2018-12-13T15:03:49.256Z,10.80
2018-12-13T15:06:17.511Z,11.20
2018-12-13T15:08:45.641Z,10.90
2018-12-13T15:11:13.955Z,9.70
2018-12-13T15:13:42.270Z,12.18
2018-12-13T15:16:10.551Z,10.78
2018-12-13T15:18:38.687Z,11.93
2018-12-13T15:21:07.030Z,10.55
2018-12-13T15:23:35.398Z,10.28
2018-12-13T15:28:39.471Z,11.25
2018-12-13T15:31:07.710Z,11.57
2018-12-13T15:33:35.938Z,10.65
2018-12-13T15:36:04.229Z,10.82
2018-12-13T15:38:32.507Z,10.28
2018-12-13T15:41:00.751Z,10.63
2018-12-13T15:43:29.109Z,9.88
2018-12-13T15:45:57.431Z,10.85
2018-12-13T15:48:25.772Z,10.70
2018-12-13T15:50:54.236Z,10.08
2018-12-13T15:53:22.648Z,10.35
2018-12-13T15:55:50.976Z,10.25
2018-12-13T15:58:19.170Z,9.98
2018-12-13T16:00:47.384Z,9.90
2018-12-13T16:03:15.567Z,10.40
2018-12-13T16:05:43.799Z,11.63
2018-12-13T16:08:12.004Z,11.08
2018-12-13T16:10:40.320Z,10.50
2018-12-13T16:13:08.557Z,10.40
2018-12-13T16:15:36.740Z,9.53
2018-12-13T16:18:05.659Z,12.68
2018-12-13T16:20:33.939Z,10.72
2018-12-13T16:23:02.151Z,12.00
2018-12-13T16:25:30.480Z,10.88
2018-12-13T16:27:59.151Z,10.40
2018-12-13T16:30:27.705Z,11.15
2018-12-13T16:32:56.013Z,10.78
2018-12-13T16:35:24.517Z,10.82
2018-12-13T16:37:52.663Z,10.70
2018-12-13T16:40:20.853Z,11.05
2018-12-13T16:42:49.048Z,11.28
2018-12-13T16:45:17.307Z,11.05
2018-12-13T16:47:45.445Z,11.00
2018-12-13T16:50:13.665Z,12.25
2018-12-13T16:52:42.513Z,11.53
2018-12-13T16:55:10.759Z,11.90
2018-12-13T16:57:57.160Z,10.80
2018-12-13T17:00:37.243Z,10.55
2018-12-13T17:03:17.030Z,11.00
2018-12-13T17:05:45.266Z,9.90
2018-12-13T17:08:15.317Z,10.40
2018-12-13T17:10:46.413Z,11.95
2018-12-13T17:13:14.570Z,9.00
2018-12-13T17:15:44.439Z,9.75
2018-12-13T17:18:13.161Z,9.45
2018-12-13T17:20:41.319Z,12.07
2018-12-13T17:23:09.806Z,15.03
2018-12-13T17:25:39.417Z,9.45
2018-12-13T17:28:07.689Z,10.70
2018-12-13T17:30:39.731Z,9.88
2018-12-13T17:33:08.083Z,10.72
2018-12-13T17:35:36.508Z,13.15
2018-12-13T17:38:04.745Z,10.18
2018-12-13T17:40:33.232Z,11.00
2018-12-13T17:43:02.181Z,11.12
2018-12-13T17:45:33.138Z,11.20
2018-12-13T17:48:02.051Z,10.50
2018-12-13T17:50:30.353Z,10.93
2018-12-13T17:52:58.602Z,10.90
2018-12-13T17:55:26.881Z,10.72
2018-12-13T17:57:55.511Z,11.20
2018-12-13T18:00:23.844Z,11.22
2018-12-13T18:02:52.126Z,10.32
2018-12-13T18:05:21.314Z,11.85
2018-12-13T18:07:49.520Z,10.65
2018-12-13T18:10:17.787Z,10.05
2018-12-13T18:12:46.005Z,10.98
2018-12-13T18:15:14.694Z,12.30
2018-12-13T18:17:43.062Z,11.93
2018-12-13T18:20:11.305Z,11.97
2018-12-13T18:22:43.087Z,12.20
2018-12-13T18:25:11.387Z,11.43
2018-12-13T18:27:39.925Z,11.35
2018-12-13T18:30:09.845Z,12.25
2018-12-13T18:32:38.117Z,10.90
2018-12-13T18:35:06.741Z,11.63
2018-12-13T18:37:35.001Z,10.00
2018-12-13T18:40:03.833Z,12.43
2018-12-13T18:42:32.116Z,10.08
2018-12-13T18:45:00.443Z,9.83
2018-12-13T18:47:28.742Z,10.25
2018-12-13T18:49:56.986Z,9.50
2018-12-13T18:52:26.377Z,10.72
2018-12-13T18:54:54.605Z,8.38
2018-12-13T18:57:22.879Z,8.35
2018-12-13T18:59:51.267Z,8.43
2018-12-13T19:02:19.666Z,9.65
2018-12-13T19:04:47.973Z,9.18
2018-12-13T19:07:16.305Z,9.50
2018-12-13T19:09:44.742Z,10.03
2018-12-13T19:12:12.953Z,9.88
2018-12-13T19:14:41.137Z,11.18
2018-12-13T19:17:10.174Z,9.78
2018-12-13T19:19:38.449Z,11.03
2018-12-13T19:22:06.835Z,10.48
2018-12-13T19:24:35.612Z,10.93
2018-12-13T19:27:03.854Z,10.28
2018-12-13T19:29:32.096Z,9.15
2018-12-13T19:32:00.409Z,10.18
2018-12-13T19:34:28.586Z,11.05
2018-12-13T19:36:56.804Z,10.48
2018-12-13T19:39:25.397Z,11.65
2018-12-13T19:41:53.849Z,11.12
2018-12-13T19:44:22.260Z,11.63
2018-12-13T19:46:50.509Z,12.30
2018-12-13T19:49:18.760Z,10.40
2018-12-13T19:51:46.969Z,10.50
2018-12-13T19:54:15.259Z,11.50
2018-12-13T19:56:43.427Z,9.85
2018-12-13T19:59:11.640Z,11.03
2018-12-13T20:01:40.022Z,10.70
2018-12-13T20:04:08.383Z,11.25
2018-12-13T20:06:37.188Z,10.50
2018-12-13T20:09:09.810Z,9.73
2018-12-13T20:11:39.810Z,9.85
2018-12-13T20:14:08.160Z,10.50
2018-12-13T20:16:37.579Z,9.00
2018-12-13T20:19:06.000Z,8.93
2018-12-13T20:21:34.236Z,9.03
2018-12-13T20:24:04.379Z,8.85
2018-12-13T20:26:33.843Z,8.43
2018-12-13T20:29:03.359Z,10.48
2018-12-13T20:31:31.908Z,8.50
2018-12-13T20:34:00.116Z,9.35
2018-12-13T20:36:28.394Z,9.25
2018-12-13T20:38:56.727Z,10.20
2018-12-13T20:41:24.959Z,8.43
2018-12-13T20:43:53.224Z,9.23
2018-12-13T20:46:21.462Z,8.58
2018-12-13T20:48:49.910Z,8.40
2018-12-13T20:51:18.260Z,8.90
2018-12-13T20:53:46.498Z,10.05
2018-12-13T20:56:16.744Z,9.95
2018-12-13T20:58:46.070Z,9.80
2018-12-13T21:01:16.962Z,8.10
2018-12-13T21:03:45.318Z,9.93
2018-12-13T21:06:13.548Z,9.23
2018-12-13T21:08:41.744Z,9.38
2018-12-13T21:11:10.853Z,11.20
2018-12-13T21:13:39.048Z,10.63
2018-12-13T21:16:07.414Z,8.03
2018-12-13T21:18:35.662Z,10.25
2018-12-13T21:21:05.146Z,8.68
2018-12-13T21:23:35.235Z,11.20
2018-12-13T21:26:03.753Z,9.30
2018-12-13T21:28:31.984Z,11.40
2018-12-13T21:31:00.318Z,9.95
2018-12-13T21:33:28.610Z,10.10
2018-12-13T21:35:56.762Z,10.18
2018-12-13T21:38:25.074Z,10.13
2018-12-13T21:40:53.390Z,9.38
2018-12-13T21:43:21.589Z,8.48
2018-12-13T21:45:49.960Z,8.95
2018-12-13T21:48:18.499Z,10.60
2018-12-13T21:50:46.729Z,10.08
2018-12-13T21:53:15.360Z,8.55
2018-12-13T21:55:43.658Z,8.68
2018-12-13T21:58:12.187Z,8.83
2018-12-13T22:00:41.968Z,9.25
2018-12-13T22:03:10.247Z,9.43
2018-12-13T22:05:38.734Z,9.60
2018-12-13T22:08:10.802Z,9.15
2018-12-13T22:10:39.216Z,8.50
2018-12-13T22:13:07.432Z,14.28
2018-12-13T22:15:35.709Z,10.40
2018-12-13T22:18:04.248Z,8.70
2018-12-13T22:20:34.129Z,10.70
2018-12-13T22:23:02.293Z,10.53
2018-12-13T22:25:30.555Z,10.32
2018-12-13T22:28:00.268Z,9.25
2018-12-13T22:30:28.636Z,10.48
2018-12-13T22:32:56.835Z,10.20
2018-12-13T22:35:25.053Z,9.70
2018-12-13T22:37:53.304Z,11.48
2018-12-13T22:40:22.658Z,11.08
2018-12-13T22:42:50.877Z,12.10
2018-12-13T22:45:19.207Z,11.38
2018-12-13T22:47:47.402Z,11.12
2018-12-13T22:50:15.709Z,10.95
2018-12-13T22:52:44.331Z,10.95
2018-12-13T22:55:12.543Z,12.35
2018-12-13T22:57:40.773Z,12.68
2018-12-13T23:00:10.683Z,11.83
2018-12-13T23:02:39.172Z,12.53
2018-12-13T23:05:20.014Z,11.90
2018-12-13T23:07:48.346Z,12.28
2018-12-13T23:10:17.786Z,12.98
2018-12-13T23:12:47.887Z,13.00
2018-12-13T23:15:16.133Z,11.30
2018-12-13T23:17:44.349Z,12.28
2018-12-13T23:20:12.715Z,12.15
2018-12-13T23:22:40.917Z,12.73
2018-12-13T23:25:09.287Z,11.20
2018-12-13T23:27:37.504Z,11.28
2018-12-13T23:30:05.941Z,11.80
2018-12-13T23:32:34.268Z,12.40
2018-12-13T23:35:02.471Z,10.98
2018-12-13T23:37:30.809Z,10.20
2018-12-13T23:39:59.094Z,10.98
2018-12-13T23:42:27.263Z,9.78
2018-12-13T23:44:55.465Z,10.23
2018-12-13T23:47:24.504Z,8.70
2018-12-13T23:49:52.607Z,9.88
2018-12-13T23:52:20.805Z,9.58
2018-12-13T23:54:49.470Z,8.88
2018-12-13T23:57:17.699Z,7.58
2018-12-13T23:59:46.341Z,7.75
